Time;durP1;ratioP1;P1;durP2;ratioP2;P2;SDS_P1;SDS_P2;PMS_P1;PMS_P2;Temp;Humidity;BMP_temperature;BMP_pressure;BME280_temperature;BME280_humidity;BME280_pressure;Samples;Min_cycle;Max_cycle;Signal;HPM_P1;HPM_P2
2023/09/20 00:01:59;;;;;;;;;1.50;1.50;;;;;20.04;65.88;100809.34;5036639;28;45362;-50
2023/09/20 00:04:24;;;;;;;;;2.50;0.75;;;;;20.11;65.96;100831.78;5034972;28;45307;-46
2023/09/20 00:06:51;;;;;;;;;2.00;2.00;;;;;20.11;66.03;100825.56;5036836;28;45370;-42
2023/09/20 00:09:17;;;;;;;;;0.00;0.00;;;;;20.11;66.36;100823.69;5036231;28;46417;-48
2023/09/20 00:11:45;;;;;;;;;1.25;1.25;;;;;20.05;66.36;100811.00;5036435;28;45355;-49
2023/09/20 00:14:10;;;;;;;;;0.00;0.00;;;;;20.08;66.41;100828.66;5036432;28;45362;-44
2023/09/20 00:16:36;;;;;;;;;1.50;1.00;;;;;20.06;66.87;100828.88;5035306;28;45525;-39
2023/09/20 00:19:01;;;;;;;;;0.75;0.75;;;;;20.04;66.77;100822.00;5036147;28;49744;-40
2023/09/20 00:21:26;;;;;;;;;1.00;1.00;;;;;20.01;66.98;100823.25;5036199;28;45367;-40
2023/09/20 00:23:52;;;;;;;;;1.25;1.25;;;;;20.01;67.45;100825.94;5036485;28;45427;-40
2023/09/20 00:26:20;;;;;;;;;4.00;0.75;;;;;19.97;67.61;100818.47;5036087;28;45410;-41
2023/09/20 00:28:48;;;;;;;;;0.25;0.25;;;;;19.93;67.40;100813.50;5036241;28;46137;-43
2023/09/20 00:31:15;;;;;;;;;3.00;1.00;;;;;19.90;68.09;100810.38;5035979;28;45462;-40
2023/09/20 00:33:40;;;;;;;;;2.25;1.50;;;;;19.86;68.35;100798.31;5036104;28;45537;-40
2023/09/20 00:36:06;;;;;;;;;0.75;0.75;;;;;19.88;69.03;100804.34;5036061;28;45310;-40
2023/09/20 00:38:32;;;;;;;;;1.25;1.25;;;;;19.83;67.79;100806.84;5035815;28;46969;-41
2023/09/20 00:40:58;;;;;;;;;2.00;2.00;;;;;19.73;68.86;100792.91;5035916;28;45351;-39
2023/09/20 00:43:24;;;;;;;;;1.00;1.00;;;;;19.77;69.03;100803.09;5036185;28;45453;-40
2023/09/20 00:45:50;;;;;;;;;0.75;0.75;;;;;19.68;69.66;100793.53;5036338;28;45209;-40
2023/09/20 00:48:17;;;;;;;;;1.25;1.25;;;;;19.74;69.82;100794.56;5035588;28;46203;-39
2023/09/20 00:50:43;;;;;;;;;2.60;1.00;;;;;19.72;69.99;100791.22;5035491;28;45454;-39
2023/09/20 00:53:13;;;;;;;;;1.00;1.00;;;;;19.71;70.50;100795.81;5038329;28;45335;-40
2023/09/20 00:55:40;;;;;;;;;2.50;1.00;;;;;19.68;70.68;100799.75;5039703;28;45471;-39
2023/09/20 00:58:14;;;;;;;;;1.50;1.00;;;;;19.67;70.05;100803.47;5039126;28;46406;-40
2023/09/20 01:00:43;;;;;;;;;2.25;1.25;;;;;19.67;70.84;100795.38;5039366;28;45462;-41
2023/09/20 01:03:09;;;;;;;;;1.00;1.00;;;;;19.65;70.04;100783.97;5039427;28;45367;-40
2023/09/20 01:05:36;;;;;;;;;1.00;1.00;;;;;19.66;70.27;100788.31;5039736;28;45458;-38
2023/09/20 01:08:03;;;;;;;;;3.00;1.00;;;;;19.63;70.26;100788.72;5038916;28;46893;-39
2023/09/20 01:10:31;;;;;;;;;2.50;1.00;;;;;19.47;68.85;100758.56;5038819;28;45468;-39
2023/09/20 01:13:07;;;;;;;;;1.00;0.25;;;;;19.47;69.83;100764.81;5039480;28;45377;-48
2023/09/20 01:15:34;;;;;;;;;3.00;2.00;;;;;19.56;69.88;100774.38;5039557;28;45558;-39
2023/09/20 01:18:01;;;;;;;;;1.00;1.00;;;;;19.55;68.78;100775.44;5039318;28;45390;-39
2023/09/20 01:20:30;;;;;;;;;1.50;1.50;;;;;19.54;70.32;100781.00;5039102;28;45761;-39
2023/09/20 01:22:57;;;;;;;;;0.75;0.00;;;;;19.52;70.07;100785.78;5038746;28;45432;-40
2023/09/20 01:25:30;;;;;;;;;2.00;1.00;;;;;19.50;70.33;100785.97;5039721;28;45279;-41
2023/09/20 01:27:57;;;;;;;;;3.75;0.75;;;;;19.52;69.83;100792.00;5038980;28;46154;-39
2023/09/20 01:30:27;;;;;;;;;3.00;1.00;;;;;19.51;70.32;100789.50;5038709;28;45262;-39
2023/09/20 01:32:57;;;;;;;;;1.00;1.00;;;;;19.51;70.00;100792.19;5039424;28;45434;-41
2023/09/20 01:35:24;;;;;;;;;2.00;2.00;;;;;19.49;70.45;100781.63;5038845;28;45495;-39
2023/09/20 01:37:50;;;;;;;;;0.50;0.50;;;;;19.38;70.11;100766.03;5038500;28;46151;-40
2023/09/20 01:40:16;;;;;;;;;2.25;1.00;;;;;19.47;70.82;100782.84;5038551;28;45422;-42
2023/09/20 01:42:43;;;;;;;;;5.00;2.00;;;;;19.29;71.03;100751.91;5038752;28;45385;-40
2023/09/20 01:45:14;;;;;;;;;2.75;1.00;;;;;19.41;70.85;100777.25;5038813;28;45534;-42
2023/09/20 01:47:41;;;;;;;;;3.25;0.50;;;;;19.38;70.80;100777.66;5038423;28;45416;-42
2023/09/20 01:50:07;;;;;;;;;1.00;1.00;;;;;19.36;71.34;100773.50;5038439;28;45384;-39
2023/09/20 01:52:32;;;;;;;;;1.00;1.00;;;;;19.33;71.10;100772.03;5038374;28;45467;-40
2023/09/20 01:55:00;;;;;;;;;0.50;0.25;;;;;19.31;71.44;100762.50;5038689;28;45417;-42
2023/09/20 01:57:26;;;;;;;;;1.00;1.00;;;;;19.28;71.32;100769.13;5038364;28;46039;-40
2023/09/20 01:59:51;;;;;;;;;2.00;0.00;;;;;19.26;71.80;100768.50;5038272;28;45299;-40
2023/09/20 02:02:16;;;;;;;;;3.50;1.00;;;;;19.24;72.16;100762.47;5038583;28;45410;-41
2023/09/20 02:04:42;;;;;;;;;2.75;1.00;;;;;19.15;72.11;100753.72;5037418;28;45228;-40
2023/09/20 02:07:09;;;;;;;;;1.00;1.00;;;;;19.12;72.28;100759.53;5038032;28;46285;-39
2023/09/20 02:09:35;;;;;;;;;0.50;0.25;;;;;19.13;70.85;100769.28;5020604;28;45463;-40
2023/09/20 02:12:00;;;;;;;;;3.75;2.00;;;;;19.08;71.99;100769.03;5037899;28;45338;-39
2023/09/20 02:14:27;;;;;;;;;3.25;2.25;;;;;19.00;73.57;100749.53;5038552;28;45415;-39
2023/09/20 02:16:52;;;;;;;;;2.00;2.00;;;;;18.99;72.75;100759.47;5053534;28;46113;-41
2023/09/20 02:19:19;;;;;;;;;3.00;3.00;;;;;18.97;73.19;100750.78;5037929;28;45450;-40
2023/09/20 02:21:45;;;;;;;;;0.00;0.00;;;;;18.82;72.83;100723.13;5036910;28;45732;-39
2023/09/20 02:24:11;;;;;;;;;2.00;2.00;;;;;18.93;73.50;100742.25;5038017;28;45372;-40
2023/09/20 02:26:37;;;;;;;;;6.00;3.00;;;;;18.90;73.55;100741.81;5037676;28;46111;-40
2023/09/20 02:29:03;;;;;;;;;2.50;2.50;;;;;18.89;73.67;100741.00;5037524;28;45362;-39
2023/09/20 02:31:28;;;;;;;;;2.00;2.00;;;;;18.87;73.67;100729.56;5037912;28;45334;-40
2023/09/20 02:33:55;;;;;;;;;2.25;2.25;;;;;18.81;74.03;100732.25;5038093;28;45352;-40
2023/09/20 02:36:20;;;;;;;;;4.00;2.00;;;;;18.78;73.93;100732.66;5037389;28;45327;-40
2023/09/20 02:38:46;;;;;;;;;4.00;3.00;;;;;18.82;74.13;100739.28;5037520;28;45479;-43
2023/09/20 02:41:11;;;;;;;;;4.75;3.00;;;;;18.80;74.10;100731.41;5037892;28;45334;-38
2023/09/20 02:43:38;;;;;;;;;2.00;2.00;;;;;18.77;74.20;100736.38;5037125;28;45379;-40
2023/09/20 02:46:05;;;;;;;;;2.25;2.25;;;;;18.75;74.31;100725.81;5037461;28;47101;-39
2023/09/20 02:48:31;;;;;;;;;5.00;2.00;;;;;18.75;74.46;100727.66;5037853;28;45435;-40
2023/09/20 02:50:59;;;;;;;;;2.50;1.00;;;;;18.68;74.37;100722.22;5037762;28;45386;-40
2023/09/20 02:53:24;;;;;;;;;2.00;1.00;;;;;18.69;74.71;100727.41;5037881;28;45441;-40
2023/09/20 02:55:50;;;;;;;;;2.00;1.00;;;;;18.69;74.37;100730.13;5037368;28;46078;-42
2023/09/20 02:58:15;;;;;;;;;3.00;1.50;;;;;18.70;74.71;100729.06;5037444;28;45471;-40
2023/09/20 03:00:46;;;;;;;;;2.50;2.50;;;;;18.72;74.72;100738.84;5037572;28;45337;-40
2023/09/20 03:03:15;;;;;;;;;5.00;2.50;;;;;18.69;74.57;100730.13;5037691;28;45278;-41
2023/09/20 03:05:40;;;;;;;;;2.00;2.00;;;;;18.69;74.94;100726.56;5037394;28;46078;-41
2023/09/20 03:08:11;;;;;;;;;3.00;2.00;;;;;18.66;74.87;100730.47;5037285;28;45428;-39
2023/09/20 03:10:38;;;;;;;;;5.25;3.75;;;;;18.66;75.18;100726.94;5037688;28;46020;-41
2023/09/20 03:13:05;;;;;;;;;2.75;2.75;;;;;18.65;75.05;100722.59;5037965;28;45619;-51
2023/09/20 03:15:32;;;;;;;;;4.00;3.00;;;;;18.60;74.83;100706.22;5036952;28;46566;-42
2023/09/20 03:18:06;;;;;;;;;5.25;3.00;;;;;18.59;75.89;100701.88;5037434;28;45414;-42
2023/09/20 03:20:34;;;;;;;;;3.25;3.25;;;;;18.54;75.53;100698.91;5037442;28;45438;-39
2023/09/20 03:23:02;;;;;;;;;2.00;2.00;;;;;18.54;75.33;100701.59;5037251;28;45494;-40
2023/09/20 03:25:28;;;;;;;;;2.50;2.50;;;;;18.54;75.52;100705.16;5037209;28;47252;-40
2023/09/20 03:27:55;;;;;;;;;2.00;2.00;;;;;18.52;74.43;100699.13;5037211;28;45315;-41
2023/09/20 03:30:20;;;;;;;;;4.25;2.75;;;;;18.49;75.25;100694.13;5037064;28;45472;-42
2023/09/20 03:32:47;;;;;;;;;1.75;1.75;;;;;18.51;75.87;100685.88;5036909;28;45388;-41
2023/09/20 03:35:14;;;;;;;;;2.00;2.00;;;;;18.51;75.47;100680.47;5036343;28;46532;-40
2023/09/20 03:37:41;;;;;;;;;2.00;1.25;;;;;18.49;75.74;100696.00;5036741;28;45590;-42
2023/09/20 03:40:10;;;;;;;;;3.00;2.00;;;;;18.48;75.93;100686.25;5037070;28;45402;-45
2023/09/20 03:42:41;;;;;;;;;3.75;2.00;;;;;18.41;76.23;100662.84;5037127;28;45468;-39
2023/09/20 03:45:10;;;;;;;;;3.00;3.00;;;;;18.48;76.04;100675.47;5036573;28;46251;-39
2023/09/20 03:47:36;;;;;;;;;2.50;1.00;;;;;18.30;76.02;100643.72;5036571;28;45429;-40
2023/09/20 03:50:03;;;;;;;;;3.75;2.00;;;;;18.47;76.37;100665.75;5036775;28;45311;-43
2023/09/20 03:52:28;;;;;;;;;3.00;3.00;;;;;18.45;76.29;100664.06;5036796;28;45511;-39
2023/09/20 03:54:54;;;;;;;;;3.00;2.50;;;;;18.45;76.42;100661.38;5036524;28;46863;-43
2023/09/20 03:57:24;;;;;;;;;4.25;3.50;;;;;18.43;76.50;100668.00;5036547;28;45437;-41
2023/09/20 03:59:54;;;;;;;;;4.50;2.50;;;;;18.42;76.72;100653.72;5036681;28;45382;-40
2023/09/20 04:02:23;;;;;;;;;3.00;2.00;;;;;18.28;76.64;100634.97;5036725;28;45533;-40
2023/09/20 04:04:53;;;;;;;;;3.25;3.25;;;;;18.42;76.77;100655.56;5036343;28;46184;-40
2023/09/20 04:07:19;;;;;;;;;3.75;3.00;;;;;18.42;76.62;100653.72;5036579;28;45409;-40
2023/09/20 04:09:45;;;;;;;;;1.50;1.25;;;;;18.43;76.74;100651.84;5035592;28;45417;-40
2023/09/20 04:12:15;;;;;;;;;2.75;2.75;;;;;18.45;76.68;100652.47;5036583;28;45406;-41
2023/09/20 04:14:43;;;;;;;;;2.00;2.00;;;;;18.45;76.62;100644.38;5036196;28;46366;-40
2023/09/20 04:17:09;;;;;;;;;5.00;4.50;;;;;18.44;76.58;100640.03;5036102;28;45356;-39
2023/09/20 04:19:34;;;;;;;;;6.00;1.75;;;;;18.40;76.87;100630.69;5036433;28;45281;-40
2023/09/20 04:22:04;;;;;;;;;2.50;2.00;;;;;18.43;76.75;100641.91;5036341;28;45492;-42
2023/09/20 04:24:33;;;;;;;;;5.75;2.00;;;;;18.43;76.57;100639.19;5035778;28;46276;-39
2023/09/20 04:26:58;;;;;;;;;2.75;2.75;;;;;18.47;76.75;100633.44;5035581;28;45289;-42
2023/09/20 04:29:25;;;;;;;;;3.75;3.75;;;;;18.47;76.58;100638.81;5036321;28;45505;-41
2023/09/20 04:31:52;;;;;;;;;2.25;2.25;;;;;18.44;76.40;100627.38;5036549;28;45198;-40
2023/09/20 04:34:18;;;;;;;;;2.00;2.00;;;;;18.48;76.40;100635.91;5036099;28;45981;-40
2023/09/20 04:36:44;;;;;;;;;1.50;1.50;;;;;18.47;76.30;100628.88;5035821;28;45216;-41
2023/09/20 04:39:11;;;;;;;;;2.00;2.00;;;;;18.44;76.50;100627.38;5036253;28;45485;-40
2023/09/20 04:41:37;;;;;;;;;6.00;2.00;;;;;18.42;76.35;100615.19;5036234;28;45465;-40
2023/09/20 04:44:04;;;;;;;;;1.75;1.00;;;;;18.42;76.04;100617.88;5036510;28;46212;-39
2023/09/20 04:46:29;;;;;;;;;3.75;2.50;;;;;18.41;76.16;100625.13;5035879;28;45610;-41
2023/09/20 04:48:55;;;;;;;;;4.50;2.00;;;;;18.39;76.00;100623.66;5036271;28;45438;-41
2023/09/20 04:51:20;;;;;;;;;3.00;1.00;;;;;18.37;76.31;100623.00;5036220;28;45519;-41
2023/09/20 04:53:46;;;;;;;;;6.50;3.00;;;;;18.34;76.80;100608.09;5035617;28;46078;-40
2023/09/20 04:56:11;;;;;;;;;4.75;3.75;;;;;18.32;77.06;100606.63;5035802;28;45264;-40
2023/09/20 04:58:37;;;;;;;;;2.00;1.00;;;;;18.27;77.26;100599.16;5036014;28;45312;-38
2023/09/20 05:01:02;;;;;;;;;1.00;1.00;;;;;18.30;76.96;100606.00;5036243;28;45719;-37
2023/09/20 05:03:29;;;;;;;;;5.50;2.50;;;;;18.28;77.19;100606.19;5035738;28;46092;-40
2023/09/20 05:05:54;;;;;;;;;7.50;2.00;;;;;18.29;77.20;100601.66;5035962;28;45350;-39
2023/09/20 05:08:20;;;;;;;;;7.50;3.50;;;;;18.27;77.01;100612.63;5035465;28;45363;-38
2023/09/20 05:10:45;;;;;;;;;3.00;1.50;;;;;18.24;77.29;100615.69;5036058;28;45392;-41
2023/09/20 05:13:11;;;;;;;;;4.00;3.50;;;;;18.19;77.38;100610.91;5035735;28;46051;-38
2023/09/20 05:15:37;;;;;;;;;2.00;2.00;;;;;18.18;77.07;100609.25;5035695;28;45374;-39
2023/09/20 05:18:04;;;;;;;;;7.00;3.00;;;;;17.73;77.45;100535.28;5036056;28;46016;-39
2023/09/20 05:20:31;;;;;;;;;6.75;2.00;;;;;18.15;77.34;100604.25;5035737;28;45448;-39
2023/09/20 05:22:58;;;;;;;;;5.25;3.25;;;;;18.09;77.43;100591.63;5035658;28;47273;-40
2023/09/20 05:25:23;;;;;;;;;5.50;5.00;;;;;18.14;77.51;100608.00;5035424;28;45299;-39
2023/09/20 05:27:49;;;;;;;;;4.00;3.00;;;;;18.12;77.94;100603.88;5035832;28;45382;-38
2023/09/20 05:30:16;;;;;;;;;4.00;3.75;;;;;18.09;78.15;100604.25;5035054;28;45188;-39
2023/09/20 05:32:41;;;;;;;;;4.00;4.00;;;;;18.11;77.99;100616.47;5035115;28;47169;-40
2023/09/20 05:35:08;;;;;;;;;6.25;3.25;;;;;18.12;78.03;100618.16;5035390;28;45251;-39
2023/09/20 05:37:35;;;;;;;;;3.50;3.00;;;;;18.10;77.58;100609.41;5035500;28;45390;-38
2023/09/20 05:40:00;;;;;;;;;6.00;4.00;;;;;18.13;77.54;100619.81;5039060;28;45374;-40
2023/09/20 05:42:28;;;;;;;;;2.00;2.00;;;;;18.15;77.82;100623.13;5038590;28;45342;-40
2023/09/20 05:44:53;;;;;;;;;2.75;2.00;;;;;18.16;77.94;100613.16;5038903;28;45318;-39
2023/09/20 05:47:19;;;;;;;;;6.25;3.25;;;;;18.16;77.58;100619.41;5038996;28;45277;-40
2023/09/20 05:49:44;;;;;;;;;4.00;3.00;;;;;18.16;77.91;100616.72;5038590;28;45450;-41
2023/09/20 05:52:09;;;;;;;;;4.25;4.25;;;;;18.18;77.91;100613.81;5038536;28;46342;-39
2023/09/20 05:54:36;;;;;;;;;1.25;1.25;;;;;18.21;77.62;100608.03;5038524;28;45451;-40
2023/09/20 05:57:02;;;;;;;;;4.50;3.50;;;;;18.24;77.22;100610.31;5038798;28;45470;-39
2023/09/20 05:59:28;;;;;;;;;4.00;4.00;;;;;18.25;77.25;100605.78;5038997;28;45286;-40
2023/09/20 06:01:53;;;;;;;;;4.00;2.00;;;;;18.21;77.17;100589.19;5038302;28;46944;-39
2023/09/20 06:04:19;;;;;;;;;7.75;2.50;;;;;18.29;77.30;100598.97;5037881;28;45412;-39
2023/09/20 06:06:45;;;;;;;;;5.75;3.00;;;;;18.25;76.19;100592.31;5038657;28;45428;-40
2023/09/20 06:09:10;;;;;;;;;4.33;4.00;;;;;18.30;77.18;100579.09;5038616;28;45362;-41
2023/09/20 06:11:36;;;;;;;;;7.75;6.25;;;;;18.29;76.99;100582.81;5038176;28;46278;-39
2023/09/20 06:14:01;;;;;;;;;4.00;3.75;;;;;18.28;77.41;100581.97;5038306;28;45335;-40
2023/09/20 06:16:26;;;;;;;;;3.50;2.75;;;;;18.27;76.43;100585.69;5038404;28;45733;-39
2023/09/20 06:18:52;;;;;;;;;6.00;3.25;;;;;18.28;77.07;100590.03;5038486;28;45350;-40
2023/09/20 06:21:20;;;;;;;;;6.50;3.00;;;;;18.31;77.20;100584.25;5035515;28;47166;-39
2023/09/20 06:23:45;;;;;;;;;8.75;2.75;;;;;18.24;76.85;100566.41;5035681;28;45890;-39
2023/09/20 06:26:12;;;;;;;;;6.25;4.50;;;;;18.29;76.95;100586.34;5037431;28;45256;-41
2023/09/20 06:28:41;;;;;;;;;2.50;2.00;;;;;18.29;76.90;100583.63;5038019;28;45272;-39
2023/09/20 06:31:15;;;;;;;;;6.50;4.00;;;;;18.32;77.23;100585.09;5037547;28;45746;-40
2023/09/20 06:33:43;;;;;;;;;7.50;4.25;;;;;18.35;77.10;100582.00;5035546;28;46075;-39
2023/09/20 06:36:08;;;;;;;;;1.75;1.75;;;;;18.36;76.36;100583.66;5037395;28;45307;-38
2023/09/20 06:38:36;;;;;;;;;5.25;3.25;;;;;18.35;76.21;100585.50;5037756;28;45508;-40
2023/09/20 06:41:02;;;;;;;;;9.25;4.00;;;;;18.37;76.66;100590.69;5037318;28;46121;-41
2023/09/20 06:43:27;;;;;;;;;6.75;4.75;;;;;18.27;76.34;100561.44;5037348;28;45253;-38
2023/09/20 06:45:53;;;;;;;;;4.00;4.00;;;;;18.47;75.76;100588.47;5037990;28;45522;-48
2023/09/20 06:48:22;;;;;;;;;5.75;3.75;;;;;18.52;75.96;100587.84;5037923;28;45560;-41
2023/09/20 06:50:52;;;;;;;;;3.25;2.50;;;;;18.55;76.00;100593.66;5036860;28;45422;-41
2023/09/20 06:53:18;;;;;;;;;5.00;3.00;;;;;18.58;75.31;100582.50;5037403;28;45796;-39
2023/09/20 06:55:44;;;;;;;;;3.50;3.00;;;;;18.67;75.65;100589.34;5037266;28;45758;-41
2023/09/20 06:58:10;;;;;;;;;5.00;2.50;;;;;18.76;75.10;100595.41;5037648;28;45950;-40
2023/09/20 07:00:36;;;;;;;;;2.00;2.00;;;;;18.77;74.70;100596.25;5037114;28;46585;-41
2023/09/20 07:03:05;;;;;;;;;3.50;2.00;;;;;18.76;74.90;100589.19;5037409;28;45263;-41
2023/09/20 07:05:31;;;;;;;;;2.00;2.00;;;;;18.75;74.96;100577.59;5036048;28;45837;-41
2023/09/20 07:07:58;;;;;;;;;5.00;4.00;;;;;18.81;74.80;100594.81;5037503;28;45369;-40
2023/09/20 07:10:25;;;;;;;;;4.75;4.75;;;;;18.80;74.75;100585.06;5036661;28;47005;-41
2023/09/20 07:12:54;;;;;;;;;3.25;3.00;;;;;18.87;74.77;100586.72;5036455;28;45409;-41
2023/09/20 07:15:20;;;;;;;;;3.00;2.75;;;;;18.94;74.24;100598.34;5037206;28;45371;-39
2023/09/20 07:17:58;;;;;;;;;4.75;3.00;;;;;19.02;73.79;100591.94;5037403;28;45373;-41
2023/09/20 07:20:24;;;;;;;;;3.25;2.00;;;;;18.98;73.72;100588.00;5036694;28;47140;-39
2023/09/20 07:22:51;;;;;;;;;3.00;3.00;;;;;19.01;74.36;100582.19;5052875;28;45457;-46
2023/09/20 07:25:19;;;;;;;;;2.75;2.00;;;;;19.08;73.79;100582.19;5056939;28;45368;-40
2023/09/20 07:27:46;;;;;;;;;3.50;3.50;;;;;18.99;74.00;100565.38;5055858;28;45617;-44
2023/09/20 07:30:14;;;;;;;;;3.75;1.25;;;;;19.11;73.82;100579.06;5056650;28;47275;-40
2023/09/20 07:32:40;;;;;;;;;5.50;3.25;;;;;19.13;73.74;100580.53;5057019;28;45424;-39
2023/09/20 07:35:19;;;;;;;;;2.25;2.25;;;;;19.16;73.55;100577.41;5056811;28;45489;-39
2023/09/20 07:37:48;;;;;;;;;2.50;1.50;;;;;19.22;73.39;100575.78;5056934;28;45327;-39
2023/09/20 07:40:15;;;;;;;;;4.00;2.25;;;;;19.25;72.61;100569.94;5056436;28;46566;-39
2023/09/20 07:42:41;;;;;;;;;3.00;3.00;;;;;19.30;72.80;100582.81;5056687;28;45329;-39
2023/09/20 07:45:12;;;;;;;;;4.00;2.50;;;;;19.34;72.62;100570.56;5056929;28;45350;-39
2023/09/20 07:47:39;;;;;;;;;3.75;3.50;;;;;19.32;72.98;100572.66;5056811;28;45519;-41
2023/09/20 07:50:07;;;;;;;;;7.25;3.00;;;;;19.40;72.54;100567.88;5056715;28;45409;-42
2023/09/20 07:52:35;;;;;;;;;2.00;2.00;;;;;19.39;72.30;100568.09;5056609;28;45407;-40
2023/09/20 07:55:02;;;;;;;;;3.75;3.75;;;;;19.40;72.27;100559.78;5039566;28;45600;-40
2023/09/20 07:57:28;;;;;;;;;2.00;2.00;;;;;19.41;72.32;100556.03;5036504;28;45511;-42
2023/09/20 07:59:53;;;;;;;;;5.25;4.00;;;;;19.53;72.37;100566.19;5036255;28;46741;-46
2023/09/20 08:02:19;;;;;;;;;5.00;2.75;;;;;19.64;71.75;100566.44;5034668;28;45380;-41
2023/09/20 08:04:44;;;;;;;;;5.25;2.50;;;;;19.76;71.51;100553.09;5036235;28;45427;-40
2023/09/20 08:07:10;;;;;;;;;2.00;0.75;;;;;19.86;71.12;100547.28;5036066;28;45757;-42
2023/09/20 08:09:36;;;;;;;;;6.00;3.00;;;;;19.92;70.70;100554.50;5033845;28;45501;-44
2023/09/20 08:12:01;;;;;;;;;4.50;3.00;;;;;19.99;70.56;100562.59;5036220;28;45429;-41
2023/09/20 08:14:26;;;;;;;;;2.50;1.00;;;;;20.10;70.31;100557.38;5035103;28;45430;-41
2023/09/20 08:19:36;;;;;;;;;2.50;2.50;;;;;20.44;69.08;100558.88;5034886;28;45659;-40
2023/09/20 08:22:02;;;;;;;;;3.00;3.00;;;;;20.56;68.80;100552.78;5036048;28;45401;-41
2023/09/20 09:00:27;;;;;;;;;5.00;4.75;;;;;22.56;62.19;100547.13;5035705;28;45266;-42
2023/09/20 09:03:03;;;;;;;;;3.00;3.00;;;;;22.61;62.16;100552.66;5035194;28;46294;-41
2023/09/20 09:05:30;;;;;;;;;3.20;2.20;;;;;22.42;61.38;100547.31;5035127;28;45306;-41
2023/09/20 09:08:01;;;;;;;;;3.00;2.80;;;;;22.07;62.23;100541.66;5034367;28;45383;-41
2023/09/20 09:10:29;;;;;;;;;3.60;2.20;;;;;21.92;62.91;100541.25;5035174;28;45560;-40
2023/09/20 09:12:58;;;;;;;;;5.40;2.00;;;;;21.78;63.16;100547.84;5035200;28;46225;-40
2023/09/20 09:15:26;;;;;;;;;1.20;1.00;;;;;21.89;63.30;100541.69;5037325;28;45403;-40
2023/09/20 09:17:52;;;;;;;;;3.00;2.80;;;;;22.05;62.04;100526.72;5038739;28;45406;-39
2023/09/20 09:20:21;;;;;;;;;3.50;2.50;;;;;22.15;61.47;100524.31;5038769;28;45362;-41
2023/09/20 09:22:48;;;;;;;;;3.20;3.20;;;;;22.32;60.83;100521.81;5038702;28;45332;-39
2023/09/20 09:25:16;;;;;;;;;2.60;2.40;;;;;22.41;60.65;100518.53;5038274;28;45389;-40
2023/09/20 09:27:43;;;;;;;;;4.60;3.80;;;;;22.77;60.29;100508.63;5035290;28;45452;-40
2023/09/20 09:30:11;;;;;;;;;4.40;3.00;;;;;23.09;58.70;100508.34;5038543;28;45659;-40
2023/09/20 09:32:37;;;;;;;;;3.20;2.80;;;;;23.20;57.50;100504.81;5038068;28;46280;-40
2023/09/20 09:35:07;;;;;;;;;3.00;3.00;;;;;23.21;57.31;100509.16;5038314;28;45338;-39
2023/09/20 09:37:33;;;;;;;;;3.00;3.00;;;;;23.08;57.00;100490.41;5038169;28;45537;-41
2023/09/20 09:40:00;;;;;;;;;4.40;1.80;;;;;23.10;56.47;100499.97;5038500;28;45461;-39
2023/09/20 09:42:28;;;;;;;;;3.80;3.00;;;;;22.97;55.65;100475.78;5037850;28;46173;-41
2023/09/20 09:44:55;;;;;;;;;1.80;1.00;;;;;23.13;55.36;100493.25;5036827;28;45318;-40
2023/09/20 09:47:21;;;;;;;;;4.40;2.60;;;;;23.26;54.96;100478.59;5038238;28;45232;-39
2023/09/20 09:49:51;;;;;;;;;2.00;2.00;;;;;23.26;54.98;100463.19;5038664;28;45379;-40
2023/09/20 09:52:24;;;;;;;;;3.40;2.60;;;;;23.45;55.06;100469.28;5037616;28;46252;-41
2023/09/20 09:54:51;;;;;;;;;5.00;3.00;;;;;23.64;54.54;100462.66;5037774;28;45326;-40
2023/09/20 09:57:18;;;;;;;;;3.20;2.20;;;;;23.88;53.51;100468.84;5038086;28;45401;-39
2023/09/20 09:59:45;;;;;;;;;3.00;3.00;;;;;24.10;53.33;100444.56;5037850;28;45582;-38
2023/09/20 10:02:21;;;;;;;;;3.20;2.00;;;;;24.57;52.31;100468.00;5038134;28;45252;-38
2023/09/20 10:04:53;;;;;;;;;2.80;2.00;;;;;25.10;52.75;100462.06;5037948;28;45327;-40
2023/09/20 10:07:22;;;;;;;;;2.80;2.80;;;;;25.64;50.45;100456.81;5038081;28;45463;-39
2023/09/20 10:09:50;;;;;;;;;1.00;1.00;;;;;26.28;46.62;100442.56;5038453;28;45406;-39
2023/09/20 10:12:17;;;;;;;;;2.40;1.60;;;;;26.70;49.21;100438.31;5037843;28;46748;-40
2023/09/20 10:14:43;;;;;;;;;4.60;2.40;;;;;26.80;45.08;100414.66;5038255;28;45319;-40
2023/09/20 10:17:20;;;;;;;;;4.00;1.60;;;;;27.50;47.01;100426.28;5037756;28;45351;-42
2023/09/20 10:19:48;;;;;;;;;3.00;1.00;;;;;28.40;43.35;100425.19;5037138;28;45324;-39
2023/09/20 10:22:13;;;;;;;;;4.60;1.40;;;;;29.62;39.41;100425.00;5037328;28;45342;-40
2023/09/20 10:24:50;;;;;;;;;4.00;2.00;;;;;31.05;36.74;100416.53;5036664;28;45690;-39
2023/09/20 10:27:20;;;;;;;;;0.80;0.80;;;;;32.41;35.61;100411.50;5037968;28;45997;-45
2023/09/20 10:30:01;;;;;;;;;3.20;2.20;;;;;34.52;34.62;100414.41;5037724;28;45834;-39
2023/09/20 10:32:35;;;;;;;;;2.00;2.00;;;;;36.12;31.98;100411.22;5037272;28;46113;-38
2023/09/20 10:35:23;;;;;;;;;4.00;3.00;;;;;37.18;27.37;100386.53;5037163;28;45385;-39
2023/09/20 10:38:00;;;;;;;;;2.00;2.00;;;;;38.34;29.63;100393.38;5037302;28;45338;-39
2023/09/20 10:40:44;;;;;;;;;3.20;2.80;;;;;39.25;26.80;100401.69;5037677;28;45394;-39
2023/09/20 10:43:09;;;;;;;;;3.00;1.80;;;;;39.82;24.03;100397.94;5037295;28;46465;-39
2023/09/20 10:45:35;;;;;;;;;1.00;1.00;;;;;40.47;23.75;100395.00;5036994;28;45261;-40
2023/09/20 10:48:05;;;;;;;;;1.00;0.25;;;;;41.26;21.68;100385.88;5037446;28;45753;-41
2023/09/20 10:50:48;;;;;;;;;2.40;2.20;;;;;41.92;21.40;100398.13;5037369;28;45569;-40
2023/09/20 10:53:15;;;;;;;;;1.00;1.00;;;;;42.75;20.41;100388.19;5037153;28;46253;-39
2023/09/20 10:55:42;;;;;;;;;4.60;1.80;;;;;43.07;19.93;100393.56;5036274;28;45459;-40
2023/09/20 10:58:07;;;;;;;;;0.40;0.40;;;;;43.23;22.43;100407.38;5016637;28;45349;-40
2023/09/20 11:00:34;;;;;;;;;3.25;0.75;;;;;42.90;19.39;100385.63;5037134;28;45831;-39
2023/09/20 11:03:07;;;;;;;;;2.00;2.00;;;;;42.65;19.82;100377.66;5036999;28;46303;-39
2023/09/20 11:05:33;;;;;;;;;2.60;2.60;;;;;42.74;19.53;100382.97;5037009;28;45235;-40
2023/09/20 11:08:06;;;;;;;;;0.80;0.00;;;;;42.89;19.61;100373.63;5037225;28;45394;-38
2023/09/20 11:10:36;;;;;;;;;1.80;1.80;;;;;43.24;19.58;100373.41;5036946;28;45508;-42
2023/09/20 11:13:05;;;;;;;;;1.20;1.00;;;;;43.75;19.46;100386.94;5036918;28;46233;-39
2023/09/20 11:15:31;;;;;;;;;2.60;2.40;;;;;44.08;20.50;100385.38;5036912;28;45317;-40
2023/09/20 11:17:57;;;;;;;;;1.60;0.60;;;;;44.02;17.99;100378.47;5036880;28;45556;-42
2023/09/20 11:20:24;;;;;;;;;2.25;0.25;;;;;44.85;18.21;100382.97;5037066;28;45298;-39
2023/09/20 11:22:51;;;;;;;;;0.80;0.80;;;;;45.67;19.86;100377.91;5036569;28;46200;-40
2023/09/20 11:25:16;;;;;;;;;1.00;1.00;;;;;45.63;17.15;100366.66;5037011;28;45437;-39
2023/09/20 11:27:42;;;;;;;;;0.50;0.50;;;;;45.65;18.66;100367.06;5036952;28;45339;-40
2023/09/20 11:30:08;;;;;;;;;0.75;0.75;;;;;45.74;17.05;100369.50;5037017;28;45367;-42
2023/09/20 11:32:34;;;;;;;;;1.80;1.20;;;;;46.37;17.06;100364.50;5036597;28;47005;-39
2023/09/20 11:35:01;;;;;;;;;0.00;0.00;;;;;46.77;17.09;100352.88;5036632;28;45407;-41
2023/09/20 11:37:30;;;;;;;;;0.00;0.00;;;;;47.16;16.23;100352.06;5036837;28;46019;-40
2023/09/20 11:39:55;;;;;;;;;0.40;0.20;;;;;47.40;15.87;100343.97;5037030;28;45465;-41
2023/09/20 11:42:25;;;;;;;;;1.00;1.00;;;;;47.41;15.92;100346.38;5036220;28;45768;-39
2023/09/20 11:45:01;;;;;;;;;1.00;1.00;;;;;46.74;16.37;100348.06;5036538;28;45415;-39
2023/09/20 11:47:31;;;;;;;;;0.40;0.20;;;;;46.46;16.01;100346.03;5036784;28;45441;-39
2023/09/20 11:49:57;;;;;;;;;2.20;1.00;;;;;46.25;17.10;100349.63;5036110;28;45525;-44
2023/09/20 11:52:22;;;;;;;;;2.00;0.50;;;;;45.79;16.85;100332.59;5035844;28;47335;-41
2023/09/20 11:54:48;;;;;;;;;0.50;0.50;;;;;46.17;16.38;100336.72;5036582;28;45723;-41
2023/09/20 11:57:16;;;;;;;;;0.25;0.25;;;;;46.59;16.60;100328.78;5036359;28;45426;-40
2023/09/20 11:59:43;;;;;;;;;3.80;0.80;;;;;46.43;16.69;100332.75;5036836;28;45436;-39
2023/09/20 12:02:12;;;;;;;;;1.40;0.20;;;;;46.23;17.40;100348.41;5034297;28;46920;-40
2023/09/20 12:04:37;;;;;;;;;1.20;0.20;;;;;44.66;17.74;100317.47;5035369;28;45489;-41